Voyager Of The Seas — C6SE5 — position and weather

sailwx.info

Track history (hours):
 
Tides and Currents Weather Stations Pressure Air Temp Water Temp Dewpoint Dewpoint Depression Visibility Wind Speed Wind Dir Waves Ship Positions

Voyager Of The Seas

Operator: Royal Caribbean Cruises Ltd

Last reported at 2014-Jul-26 02:31 UTC. Time now 2014-Jul-26 03:05 UTC.
Position N 38°59' E 117°49'.

Type: Passenger vessel. MMSI: 311317000.

Date/timePositionNaut miles runAvg speedWind from/ knotsBaromVisibWave heightAir tempDewpointWater temp
2014-Jul-26 02:31N 38°59' E 117°49'0 0.0
2014-Jul-26 01:31N 38°59' E 117°49'0 0.0
2014-Jul-26 00:31N 38°59' E 117°49'0 0.0
2014-Jul-25 23:31N 38°59' E 117°49'0 0.0
2014-Jul-25 22:28N 38°59' E 117°49'8 8.3
2014-Jul-25 21:34N 38°57' E 117°58'1312.7
2014-Jul-25 20:33N 38°52' E 118°14'19017.0
2014-Jul-25 09:24N 38°04' E 122°09'1518.2
2014-Jul-25 08:33N 37°55' E 122°25'1818.3
2014-Jul-25 07:33N 37°47' E 122°46'34914.4
2014-Jul-24 07:20N 35°02' E 129°08'3 4.3
2014-Jul-24 06:32N 35°05' E 129°05'0 0.0
2014-Jul-24 05:32N 35°05' E 129°05'0 0.0
2014-Jul-24 04:32N 35°05' E 129°05'0 0.0
2014-Jul-24 03:20N 35°05' E 129°05'0 0.0
2014-Jul-24 02:32N 35°05' E 129°05'0 0.0
2014-Jul-24 01:20N 35°05' E 129°05'0 0.0
2014-Jul-24 00:29N 35°05' E 129°05'0 0.0
2014-Jul-23 23:29N 35°05' E 129°05'0 0.0
2014-Jul-23 22:32N 35°05' E 129°05'0 0.0
2014-Jul-23 21:32N 35°05' E 129°05'5 5.1
2014-Jul-23 20:31N 35°01' E 129°09'418 8.5
2014-Jul-21 19:33N 38°18' E 121°29'2818.9
2014-Jul-21 18:06N 38°30' E 120°58'1419.1
2014-Jul-21 17:21N 38°33' E 120°40'1518.6
2014-Jul-21 16:33N 38°37' E 120°22'7517.4
2014-Jul-21 12:14N 38°48' E 118°47'1316.6
2014-Jul-21 11:26N 38°49' E 118°30'1516.5
2014-Jul-21 10:33N 38°52' E 118°12'1413.9
2014-Jul-21 09:33N 38°57' E 117°55'5 4.9
2014-Jul-21 08:33N 38°59' E 117°49'0 0.0
2014-Jul-21 07:33N 38°59' E 117°49'0 0.0
2014-Jul-21 06:33N 38°59' E 117°49'0 0.0
2014-Jul-21 05:33N 38°59' E 117°49'0 0.0
2014-Jul-21 04:33N 38°59' E 117°49'0 0.0
2014-Jul-21 03:33N 38°59' E 117°49'0 0.0
2014-Jul-21 02:33N 38°59' E 117°49'0 0.0
2014-Jul-21 01:33N 38°59' E 117°49'0 0.0
2014-Jul-21 00:33N 38°59' E 117°49'0 0.0
2014-Jul-20 23:33N 38°59' E 117°49'0 0.1
2014-Jul-20 22:33N 38°58' E 117°49'1010.1
2014-Jul-20 21:33N 38°56' E 118°02'9 8.6
2014-Jul-20 20:33N 38°53' E 118°12'14713.1
2014-Jul-20 09:20N 38°28' E 121°17'1113.8
2014-Jul-20 08:33N 38°23' E 121°30'1413.7
2014-Jul-20 07:33N 38°15' E 121°44'1413.9
2014-Jul-20 06:33N 38°08' E 121°59'1413.9
2014-Jul-20 05:33N 38°02' E 122°15'1414.2
2014-Jul-20 04:32N 37°54' E 122°30'2014.6
2014-Jul-20 03:11N 37°43' E 122°51'2314.1
2014-Jul-20 01:33N 37°25' E 123°09'13 0.3
2014-Jul-18 01:00N 37°12' E 123°12'6618.7 210 / 71014.0 0.3 25.020.723.0
2014-Jul-17 21:28N 38°00' E 122°16'1718.2
2014-Jul-17 20:33N 38°08' E 121°57'2217.8
2014-Jul-17 19:20N 38°18' E 121°32'1417.3
2014-Jul-17 18:32N 38°24' E 121°16'5217.7
2014-Jul-17 15:33N 38°38' E 120°12'5618.8
2014-Jul-17 12:33N 38°45' E 119°00'1818.0
2014-Jul-17 11:33N 38°48' E 118°37'1717.2
2014-Jul-17 10:33N 38°50' E 118°15'1414.6
2014-Jul-17 09:34N 38°57' E 117°59'8 7.1
2014-Jul-17 08:28N 38°59' E 117°49'0 0.0
2014-Jul-17 07:31N 38°59' E 117°49'0 0.0
2014-Jul-17 06:31N 38°59' E 117°49'0 0.0
2014-Jul-17 05:31N 38°59' E 117°49'0 0.0
2014-Jul-17 04:31N 38°59' E 117°49'0 0.0
2014-Jul-17 03:28N 38°59' E 117°49'0 0.0
2014-Jul-17 02:31N 38°59' E 117°49'0 0.0
2014-Jul-17 01:31N 38°59' E 117°49'0 0.0
2014-Jul-17 00:25N 38°59' E 117°49'0 0.0
2014-Jul-16 23:31N 38°59' E 117°49'0 0.0
2014-Jul-16 22:31N 38°59' E 117°49'8 8.7
2014-Jul-16 21:33N 38°56' E 117°59'1311.7
2014-Jul-16 20:28N 38°52' E 118°15'15717.3
2014-Jul-16 11:23N 38°22' E 121°32'2418.4
2014-Jul-16 10:06N 38°09' E 121°57'1018.5
2014-Jul-16 09:34N 38°04' E 122°08'1818.3
2014-Jul-16 08:33N 37°55' E 122°28'2117.4
2014-Jul-16 07:21N 37°44' E 122°51'2016.6
2014-Jul-16 06:07N 37°29' E 123°07'1117.1
2014-Jul-16 05:28N 37°19' E 123°15'3517.8
2014-Jul-16 03:30N 36°48' E 123°34'  
Track history (hours):
 
Tides and Currents Weather Stations Pressure Air Temp Water Temp Dewpoint Dewpoint Depression Visibility Wind Speed Wind Dir Waves Ship Positions

Voyager Of The Seas

Operator: Royal Caribbean Cruises Ltd

Last reported at 2014-Jul-26 02:31 UTC. Time now 2014-Jul-26 03:05 UTC.
Position N 38°59' E 117°49'.

Type: Passenger vessel. MMSI: 311317000.

Date/timePositionNaut miles runAvg speedWind from/ knotsBaromVisibWave heightAir tempDewpointWater temp
2014-Jul-26 02:31N 38°59' E 117°49'0 0.0
2014-Jul-26 01:31N 38°59' E 117°49'0 0.0
2014-Jul-26 00:31N 38°59' E 117°49'0 0.0
2014-Jul-25 23:31N 38°59' E 117°49'0 0.0
2014-Jul-25 22:28N 38°59' E 117°49'8 8.3
2014-Jul-25 21:34N 38°57' E 117°58'1312.7
2014-Jul-25 20:33N 38°52' E 118°14'19017.0
2014-Jul-25 09:24N 38°04' E 122°09'1518.2
2014-Jul-25 08:33N 37°55' E 122°25'1818.3
2014-Jul-25 07:33N 37°47' E 122°46'34914.4
2014-Jul-24 07:20N 35°02' E 129°08'3 4.3
2014-Jul-24 06:32N 35°05' E 129°05'0 0.0
2014-Jul-24 05:32N 35°05' E 129°05'0 0.0
2014-Jul-24 04:32N 35°05' E 129°05'0 0.0
2014-Jul-24 03:20N 35°05' E 129°05'0 0.0
2014-Jul-24 02:32N 35°05' E 129°05'0 0.0
2014-Jul-24 01:20N 35°05' E 129°05'0 0.0
2014-Jul-24 00:29N 35°05' E 129°05'0 0.0
2014-Jul-23 23:29N 35°05' E 129°05'0 0.0
2014-Jul-23 22:32N 35°05' E 129°05'0 0.0
2014-Jul-23 21:32N 35°05' E 129°05'5 5.1
2014-Jul-23 20:31N 35°01' E 129°09'418 8.5
2014-Jul-21 19:33N 38°18' E 121°29'2818.9
2014-Jul-21 18:06N 38°30' E 120°58'1419.1
2014-Jul-21 17:21N 38°33' E 120°40'1518.6
2014-Jul-21 16:33N 38°37' E 120°22'7517.4
2014-Jul-21 12:14N 38°48' E 118°47'1316.6
2014-Jul-21 11:26N 38°49' E 118°30'1516.5
2014-Jul-21 10:33N 38°52' E 118°12'1413.9
2014-Jul-21 09:33N 38°57' E 117°55'5 4.9
2014-Jul-21 08:33N 38°59' E 117°49'0 0.0
2014-Jul-21 07:33N 38°59' E 117°49'0 0.0
2014-Jul-21 06:33N 38°59' E 117°49'0 0.0
2014-Jul-21 05:33N 38°59' E 117°49'0 0.0
2014-Jul-21 04:33N 38°59' E 117°49'0 0.0
2014-Jul-21 03:33N 38°59' E 117°49'0 0.0
2014-Jul-21 02:33N 38°59' E 117°49'0 0.0
2014-Jul-21 01:33N 38°59' E 117°49'0 0.0
2014-Jul-21 00:33N 38°59' E 117°49'0 0.0
2014-Jul-20 23:33N 38°59' E 117°49'0 0.1
2014-Jul-20 22:33N 38°58' E 117°49'1010.1
2014-Jul-20 21:33N 38°56' E 118°02'9 8.6
2014-Jul-20 20:33N 38°53' E 118°12'14713.1
2014-Jul-20 09:20N 38°28' E 121°17'1113.8
2014-Jul-20 08:33N 38°23' E 121°30'1413.7
2014-Jul-20 07:33N 38°15' E 121°44'1413.9
2014-Jul-20 06:33N 38°08' E 121°59'1413.9
2014-Jul-20 05:33N 38°02' E 122°15'1414.2
2014-Jul-20 04:32N 37°54' E 122°30'2014.6
2014-Jul-20 03:11N 37°43' E 122°51'2314.1
2014-Jul-20 01:33N 37°25' E 123°09'13 0.3
2014-Jul-18 01:00N 37°12' E 123°12'6618.7 210 / 71014.0 0.3 25.020.723.0
2014-Jul-17 21:28N 38°00' E 122°16'1718.2
2014-Jul-17 20:33N 38°08' E 121°57'2217.8
2014-Jul-17 19:20N 38°18' E 121°32'1417.3
2014-Jul-17 18:32N 38°24' E 121°16'5217.7
2014-Jul-17 15:33N 38°38' E 120°12'5618.8
2014-Jul-17 12:33N 38°45' E 119°00'1818.0
2014-Jul-17 11:33N 38°48' E 118°37'1717.2
2014-Jul-17 10:33N 38°50' E 118°15'1414.6
2014-Jul-17 09:34N 38°57' E 117°59'8 7.1
2014-Jul-17 08:28N 38°59' E 117°49'0 0.0
2014-Jul-17 07:31N 38°59' E 117°49'0 0.0
2014-Jul-17 06:31N 38°59' E 117°49'0 0.0
2014-Jul-17 05:31N 38°59' E 117°49'0 0.0
2014-Jul-17 04:31N 38°59' E 117°49'0 0.0
2014-Jul-17 03:28N 38°59' E 117°49'0 0.0
2014-Jul-17 02:31N 38°59' E 117°49'0 0.0
2014-Jul-17 01:31N 38°59' E 117°49'0 0.0
2014-Jul-17 00:25N 38°59' E 117°49'0 0.0
2014-Jul-16 23:31N 38°59' E 117°49'0 0.0
2014-Jul-16 22:31N 38°59' E 117°49'8 8.7
2014-Jul-16 21:33N 38°56' E 117°59'1311.7
2014-Jul-16 20:28N 38°52' E 118°15'15717.3
2014-Jul-16 11:23N 38°22' E 121°32'2418.4
2014-Jul-16 10:06N 38°09' E 121°57'1018.5
2014-Jul-16 09:34N 38°04' E 122°08'1818.3
2014-Jul-16 08:33N 37°55' E 122°28'2117.4
2014-Jul-16 07:21N 37°44' E 122°51'2016.6
2014-Jul-16 06:07N 37°29' E 123°07'1117.1
2014-Jul-16 05:28N 37°19' E 123°15'3517.8
2014-Jul-16 03:30N 36°48' E 123°34'  

Dump ship's entire track history